UAE801 OMDB-OEJN
Flight info
| Callsign | UAE801 |
|---|---|
| Flight time | N/A |
| Altitude | 34000 |
| Route | KUTLI L519 ATUDO M318 GOLGU M550 RIBOT DCT MIGMA DCT ITRUX Y511 ASMIS T218 IMGUT M309 VEMEM |
| Aircraft | A388/J-SADE2E3FGHIJ3J4J5M1RWXY/LB1D1 |
Departure
| Time | 2026-04-23 15:13 |
|---|---|
| Airport | Dubai International Airport (OMDB) |
Arrival
| Time | N/A |
|---|---|
| Airport | King Abdulaziz International Airport (OEJN) |
| Time | Latitude | Longitude | Altitude | Speed | Heading |
|---|---|---|---|---|---|
| 2026-04-23 14:45 | 25.24972 | 55.36153 | 29 ft | 0 kts | 212° |
| 2026-04-23 14:56 | 25.24973 | 55.36153 | 26 ft | 2 kts | 212° |
| 2026-04-23 14:56 | 25.24987 | 55.36163 | 32 ft | 3 kts | 212° |
| 2026-04-23 14:57 | 25.24995 | 55.36168 | 28 ft | 3 kts | 212° |
| 2026-04-23 14:57 | 25.25010 | 55.36178 | 32 ft | 3 kts | 212° |
| 2026-04-23 14:57 | 25.25025 | 55.36188 | 32 ft | 3 kts | 212° |
| 2026-04-23 14:57 | 25.25039 | 55.36198 | 24 ft | 2 kts | 211° |
| 2026-04-23 14:58 | 25.25054 | 55.36208 | 24 ft | 2 kts | 211° |
| 2026-04-23 14:58 | 25.25068 | 55.36217 | 24 ft | 2 kts | 211° |
| 2026-04-23 14:58 | 25.25083 | 55.36227 | 25 ft | 2 kts | 211° |
| 2026-04-23 14:58 | 25.25097 | 55.36238 | 25 ft | 2 kts | 219° |
| 2026-04-23 14:59 | 25.25107 | 55.36253 | 25 ft | 2 kts | 242° |
| 2026-04-23 14:59 | 25.25110 | 55.36272 | 24 ft | 3 kts | 264° |
| 2026-04-23 14:59 | 25.25107 | 55.36291 | 24 ft | 2 kts | 287° |
| 2026-04-23 14:59 | 25.25101 | 55.36303 | 25 ft | 0 kts | 303° |
| 2026-04-23 15:01 | 25.25107 | 55.36293 | 26 ft | 4 kts | 301° |
| 2026-04-23 15:01 | 25.25129 | 55.36247 | 27 ft | 10 kts | 298° |
| 2026-04-23 15:01 | 25.25144 | 55.36218 | 27 ft | 0 kts | 301° |
| 2026-04-23 15:02 | 25.25145 | 55.36215 | 27 ft | 2 kts | 301° |
| 2026-04-23 15:02 | 25.25161 | 55.36187 | 27 ft | 7 kts | 302° |
| 2026-04-23 15:02 | 25.25180 | 55.36152 | 26 ft | 10 kts | 301° |
| 2026-04-23 15:03 | 25.25223 | 55.36076 | 26 ft | 13 kts | 302° |
| 2026-04-23 15:03 | 25.25278 | 55.35980 | 26 ft | 16 kts | 302° |
| 2026-04-23 15:03 | 25.25338 | 55.35873 | 26 ft | 17 kts | 302° |
| 2026-04-23 15:03 | 25.25399 | 55.35764 | 29 ft | 17 kts | 302° |
| 2026-04-23 15:04 | 25.25461 | 55.35654 | 28 ft | 17 kts | 302° |
| 2026-04-23 15:04 | 25.25523 | 55.35544 | 31 ft | 17 kts | 302° |
| 2026-04-23 15:04 | 25.25585 | 55.35434 | 30 ft | 17 kts | 302° |
| 2026-04-23 15:04 | 25.25648 | 55.35323 | 30 ft | 17 kts | 302° |
| 2026-04-23 15:05 | 25.25711 | 55.35221 | 30 ft | 11 kts | 336° |
| 2026-04-23 15:05 | 25.25778 | 55.35224 | 27 ft | 11 kts | 24° |
| 2026-04-23 15:05 | 25.25855 | 55.35271 | 26 ft | 14 kts | 31° |
| 2026-04-23 15:05 | 25.25949 | 55.35336 | 26 ft | 17 kts | 37° |
| 2026-04-23 15:06 | 25.26002 | 55.35436 | 27 ft | 19 kts | 79° |
| 2026-04-23 15:06 | 25.25987 | 55.35550 | 27 ft | 21 kts | 117° |
| 2026-04-23 15:06 | 25.25914 | 55.35689 | 27 ft | 21 kts | 122° |
| 2026-04-23 15:06 | 25.25834 | 55.35830 | 27 ft | 21 kts | 122° |
| 2026-04-23 15:07 | 25.25787 | 55.35916 | 27 ft | 16 kts | 121° |
| 2026-04-23 15:07 | 25.25718 | 55.36038 | 27 ft | 21 kts | 122° |
| 2026-04-23 15:07 | 25.25635 | 55.36184 | 28 ft | 23 kts | 122° |
| 2026-04-23 15:07 | 25.25546 | 55.36344 | 27 ft | 26 kts | 122° |
| 2026-04-23 15:08 | 25.25453 | 55.36508 | 27 ft | 22 kts | 122° |
| 2026-04-23 15:08 | 25.25394 | 55.36612 | 27 ft | 18 kts | 122° |
| 2026-04-23 15:08 | 25.25323 | 55.36741 | 27 ft | 21 kts | 121° |
| 2026-04-23 15:09 | 25.25165 | 55.37020 | 27 ft | 22 kts | 122° |
| 2026-04-23 15:09 | 25.25079 | 55.37173 | 28 ft | 25 kts | 122° |
| 2026-04-23 15:09 | 25.25021 | 55.37278 | 28 ft | 9 kts | 122° |
| 2026-04-23 15:09 | 25.24977 | 55.37355 | 29 ft | 17 kts | 121° |
| 2026-04-23 15:10 | 25.24906 | 55.37480 | 28 ft | 22 kts | 122° |
| 2026-04-23 15:10 | 25.24822 | 55.37630 | 28 ft | 23 kts | 122° |
| 2026-04-23 15:10 | 25.24749 | 55.37760 | 28 ft | 22 kts | 122° |
| 2026-04-23 15:10 | 25.24675 | 55.37890 | 27 ft | 21 kts | 122° |
| 2026-04-23 15:11 | 25.24624 | 55.38011 | 28 ft | 16 kts | 85° |
| 2026-04-23 15:11 | 25.24685 | 55.38082 | 30 ft | 13 kts | 31° |
| 2026-04-23 15:11 | 25.24751 | 55.38099 | 31 ft | 9 kts | 340° |
| 2026-04-23 15:11 | 25.24785 | 55.38064 | 30 ft | 0 kts | 302° |
| 2026-04-23 15:12 | 25.24863 | 55.37925 | 30 ft | 61 kts | 301° |
| 2026-04-23 15:12 | 25.25205 | 55.37308 | 32 ft | 129 kts | 301° |
| 2026-04-23 15:12 | 25.25733 | 55.36327 | 103 ft | 163 kts | 300° |
| 2026-04-23 15:12 | 25.26387 | 55.35250 | 473 ft | 172 kts | 309° |
| 2026-04-23 15:13 | 25.27149 | 55.34288 | 800 ft | 180 kts | 316° |
| 2026-04-23 15:13 | 25.28085 | 55.33242 | 1187 ft | 200 kts | 315° |
| 2026-04-23 15:13 | 25.29084 | 55.32125 | 1662 ft | 219 kts | 316° |
| 2026-04-23 15:13 | 25.30202 | 55.30829 | 2203 ft | 236 kts | 315° |
| 2026-04-23 15:14 | 25.31059 | 55.29211 | 2549 ft | 263 kts | 288° |
| 2026-04-23 15:14 | 25.31104 | 55.27143 | 3330 ft | 269 kts | 258° |
| 2026-04-23 15:14 | 25.30286 | 55.25290 | 4146 ft | 275 kts | 232° |
| 2026-04-23 15:14 | 25.28781 | 55.24074 | 5274 ft | 266 kts | 204° |
| 2026-04-23 15:15 | 25.26986 | 55.23578 | 6120 ft | 269 kts | 193° |
| 2026-04-23 15:15 | 25.25153 | 55.23110 | 6863 ft | 271 kts | 199° |
| 2026-04-23 15:15 | 25.23403 | 55.22347 | 7640 ft | 270 kts | 207° |
| 2026-04-23 15:15 | 25.21772 | 55.21353 | 8417 ft | 273 kts | 213° |
| 2026-04-23 15:16 | 25.20173 | 55.20198 | 9144 ft | 277 kts | 214° |
| 2026-04-23 15:16 | 25.18591 | 55.18972 | 9920 ft | 280 kts | 216° |
| 2026-04-23 15:16 | 25.17398 | 55.18029 | 10399 ft | 286 kts | 216° |
| 2026-04-23 15:16 | 25.15745 | 55.16721 | 10622 ft | 307 kts | 216° |
| 2026-04-23 15:17 | 25.14012 | 55.15356 | 10796 ft | 327 kts | 216° |
| 2026-04-23 15:17 | 25.12127 | 55.13878 | 11377 ft | 333 kts | 216° |
| 2026-04-23 15:17 | 25.10228 | 55.12392 | 12071 ft | 336 kts | 216° |
| 2026-04-23 15:17 | 25.08317 | 55.10899 | 12807 ft | 338 kts | 215° |
| 2026-04-23 15:18 | 25.06393 | 55.09398 | 13519 ft | 341 kts | 215° |
| 2026-04-23 15:18 | 25.04457 | 55.07887 | 14166 ft | 344 kts | 216° |
| 2026-04-23 15:18 | 25.02484 | 55.06348 | 14686 ft | 350 kts | 216° |
| 2026-04-23 15:18 | 25.00489 | 55.04792 | 14832 ft | 352 kts | 216° |
| 2026-04-23 15:19 | 24.98538 | 55.03270 | 14855 ft | 351 kts | 216° |
| 2026-04-23 15:19 | 24.96581 | 55.01744 | 14850 ft | 350 kts | 216° |
| 2026-04-23 15:19 | 24.94606 | 55.00205 | 14852 ft | 350 kts | 216° |
| 2026-04-23 15:19 | 24.92617 | 54.98657 | 14848 ft | 350 kts | 216° |
| 2026-04-23 15:20 | 24.90648 | 54.97124 | 14848 ft | 350 kts | 216° |
| 2026-04-23 15:20 | 24.88657 | 54.95574 | 14833 ft | 350 kts | 216° |
| 2026-04-23 15:20 | 24.86660 | 54.94033 | 14835 ft | 353 kts | 214° |
| 2026-04-23 15:20 | 24.84540 | 54.92690 | 14840 ft | 354 kts | 209° |
| 2026-04-23 15:21 | 24.82362 | 54.91409 | 14840 ft | 354 kts | 209° |
| 2026-04-23 15:21 | 24.80203 | 54.90124 | 14934 ft | 355 kts | 210° |
| 2026-04-23 15:21 | 24.78010 | 54.88815 | 15317 ft | 359 kts | 210° |
| 2026-04-23 15:21 | 24.75816 | 54.87505 | 16005 ft | 360 kts | 210° |
| 2026-04-23 15:22 | 24.73600 | 54.86182 | 16548 ft | 366 kts | 210° |
| 2026-04-23 15:22 | 24.71352 | 54.84840 | 17133 ft | 369 kts | 210° |
| 2026-04-23 15:22 | 24.69096 | 54.83495 | 17702 ft | 373 kts | 211° |
| 2026-04-23 15:22 | 24.66813 | 54.82104 | 18228 ft | 377 kts | 212° |
| 2026-04-23 15:23 | 24.64552 | 54.80653 | 18765 ft | 379 kts | 213° |
| 2026-04-23 15:23 | 24.62265 | 54.79166 | 19290 ft | 381 kts | 213° |
| 2026-04-23 15:23 | 24.59977 | 54.77683 | 19792 ft | 383 kts | 213° |
| 2026-04-23 15:23 | 24.57691 | 54.76212 | 20280 ft | 386 kts | 213° |
| 2026-04-23 15:24 | 24.55340 | 54.74703 | 20711 ft | 391 kts | 213° |
| 2026-04-23 15:24 | 24.52995 | 54.73203 | 21207 ft | 392 kts | 213° |
| 2026-04-23 15:24 | 24.50634 | 54.71691 | 21719 ft | 395 kts | 213° |
| 2026-04-23 15:24 | 24.48251 | 54.70161 | 22184 ft | 397 kts | 213° |
| 2026-04-23 15:25 | 24.45854 | 54.68621 | 22687 ft | 400 kts | 213° |
| 2026-04-23 15:25 | 24.43441 | 54.67072 | 23167 ft | 403 kts | 213° |
| 2026-04-23 15:25 | 24.41047 | 54.65538 | 23588 ft | 405 kts | 213° |
| 2026-04-23 15:25 | 24.38613 | 54.63983 | 23982 ft | 407 kts | 213° |
| 2026-04-23 15:26 | 24.36152 | 54.62411 | 24386 ft | 410 kts | 213° |
| 2026-04-23 15:26 | 24.33683 | 54.60835 | 24783 ft | 412 kts | 214° |
| 2026-04-23 15:26 | 24.31197 | 54.59248 | 25177 ft | 415 kts | 214° |
| 2026-04-23 15:26 | 24.28697 | 54.57649 | 25593 ft | 417 kts | 215° |
| 2026-04-23 15:27 | 24.26297 | 54.55867 | 26019 ft | 416 kts | 223° |
| 2026-04-23 15:27 | 24.24266 | 54.53658 | 26438 ft | 414 kts | 234° |
| 2026-04-23 15:27 | 24.22558 | 54.51095 | 26932 ft | 414 kts | 240° |
| 2026-04-23 15:27 | 24.21052 | 54.48401 | 27429 ft | 415 kts | 243° |
| 2026-04-23 15:28 | 24.19980 | 54.46343 | 27810 ft | 417 kts | 244° |
| 2026-04-23 15:28 | 24.18597 | 54.43624 | 28322 ft | 419 kts | 244° |
| 2026-04-23 15:28 | 24.17222 | 54.40911 | 28825 ft | 422 kts | 244° |
| 2026-04-23 15:28 | 24.15787 | 54.38096 | 29333 ft | 425 kts | 245° |
| 2026-04-23 15:29 | 24.14335 | 54.35261 | 29855 ft | 428 kts | 245° |
| 2026-04-23 15:29 | 24.12871 | 54.32413 | 30297 ft | 431 kts | 245° |
| 2026-04-23 15:29 | 24.11393 | 54.29542 | 30724 ft | 435 kts | 245° |
| 2026-04-23 15:29 | 24.09904 | 54.26652 | 31121 ft | 439 kts | 245° |
| 2026-04-23 15:30 | 24.08398 | 54.23733 | 31525 ft | 442 kts | 245° |
| 2026-04-23 15:30 | 24.06885 | 54.20802 | 31985 ft | 445 kts | 245° |
| 2026-04-23 15:30 | 24.05356 | 54.17842 | 32372 ft | 448 kts | 245° |
| 2026-04-23 15:30 | 24.03807 | 54.14845 | 32783 ft | 452 kts | 245° |
| 2026-04-23 15:31 | 24.02254 | 54.11839 | 33178 ft | 455 kts | 245° |
| 2026-04-23 15:31 | 24.00701 | 54.08838 | 33565 ft | 459 kts | 245° |
| 2026-04-23 15:31 | 23.99159 | 54.05858 | 33814 ft | 464 kts | 244° |
| 2026-04-23 15:32 | 23.95934 | 53.99740 | 33834 ft | 470 kts | 244° |
| 2026-04-23 15:32 | 23.92692 | 53.93636 | 33837 ft | 469 kts | 244° |
| 2026-04-23 15:33 | 23.89804 | 53.88189 | 33839 ft | 468 kts | 244° |
| 2026-04-23 15:33 | 23.86759 | 53.82443 | 33842 ft | 468 kts | 244° |
| 2026-04-23 15:34 | 23.83593 | 53.76477 | 33842 ft | 469 kts | 244° |
| 2026-04-23 15:34 | 23.80554 | 53.70758 | 33864 ft | 468 kts | 244° |
| 2026-04-23 15:35 | 23.77345 | 53.64724 | 33861 ft | 468 kts | 244° |
| 2026-04-23 15:35 | 23.74078 | 53.58589 | 33852 ft | 467 kts | 244° |
| 2026-04-23 15:36 | 23.70882 | 53.52596 | 33850 ft | 467 kts | 244° |
| 2026-04-23 15:36 | 23.67712 | 53.46628 | 33842 ft | 466 kts | 245° |
| 2026-04-23 15:37 | 23.64569 | 53.40687 | 33847 ft | 466 kts | 244° |
| 2026-04-23 15:37 | 23.61920 | 53.35691 | 33850 ft | 466 kts | 244° |
| 2026-04-23 15:38 | 23.58138 | 53.28571 | 33833 ft | 466 kts | 244° |
| 2026-04-23 15:38 | 23.55124 | 53.22907 | 33856 ft | 465 kts | 245° |
| 2026-04-23 15:39 | 23.51990 | 53.17023 | 33846 ft | 465 kts | 245° |
| 2026-04-23 15:39 | 23.48756 | 53.10957 | 33847 ft | 465 kts | 245° |
| 2026-04-23 15:40 | 23.45572 | 53.04992 | 33846 ft | 465 kts | 245° |
| 2026-04-23 15:40 | 23.42337 | 52.98940 | 33843 ft | 465 kts | 245° |
| 2026-04-23 15:41 | 23.39103 | 52.92847 | 33838 ft | 464 kts | 245° |
| 2026-04-23 15:41 | 23.36151 | 52.87055 | 33839 ft | 463 kts | 246° |
| 2026-04-23 15:42 | 23.33096 | 52.81067 | 33833 ft | 463 kts | 245° |
| 2026-04-23 15:42 | 23.29956 | 52.74952 | 33822 ft | 463 kts | 245° |
| 2026-04-23 15:43 | 23.26802 | 52.68825 | 33812 ft | 464 kts | 245° |
| 2026-04-23 15:43 | 23.23652 | 52.62715 | 33832 ft | 464 kts | 245° |
| 2026-04-23 15:44 | 23.20518 | 52.56641 | 33831 ft | 464 kts | 245° |
| 2026-04-23 15:44 | 23.17626 | 52.50409 | 33806 ft | 460 kts | 252° |
| 2026-04-23 15:45 | 23.15865 | 52.44923 | 33822 ft | 458 kts | 254° |
| 2026-04-23 15:45 | 23.13793 | 52.38370 | 33823 ft | 459 kts | 254° |
| 2026-04-23 15:46 | 23.11751 | 52.31942 | 33829 ft | 459 kts | 254° |
| 2026-04-23 15:46 | 23.09710 | 52.25517 | 33823 ft | 460 kts | 254° |
| 2026-04-23 15:47 | 23.07676 | 52.19125 | 33827 ft | 460 kts | 253° |
| 2026-04-23 15:47 | 23.05588 | 52.12572 | 33834 ft | 460 kts | 253° |
| 2026-04-23 15:48 | 23.03493 | 52.06009 | 33831 ft | 460 kts | 253° |
| 2026-04-23 15:48 | 23.01388 | 51.99425 | 33838 ft | 460 kts | 253° |
| 2026-04-23 15:49 | 22.99294 | 51.92884 | 33844 ft | 460 kts | 253° |
| 2026-04-23 15:49 | 22.97185 | 51.86309 | 33843 ft | 460 kts | 253° |
| 2026-04-23 15:50 | 22.95334 | 51.80546 | 33842 ft | 461 kts | 253° |
| 2026-04-23 15:50 | 22.93230 | 51.74005 | 33848 ft | 460 kts | 253° |
| 2026-04-23 15:51 | 22.91149 | 51.67544 | 33847 ft | 460 kts | 253° |
| 2026-04-23 15:51 | 22.89136 | 51.61305 | 33849 ft | 460 kts | 253° |
| 2026-04-23 15:52 | 22.87037 | 51.54809 | 33846 ft | 460 kts | 253° |
| 2026-04-23 15:52 | 22.85144 | 51.48259 | 33841 ft | 457 kts | 259° |
| 2026-04-23 15:53 | 22.84290 | 51.41468 | 33846 ft | 454 kts | 269° |
| 2026-04-23 15:53 | 22.84241 | 51.34633 | 33843 ft | 453 kts | 271° |
| 2026-04-23 15:54 | 22.84194 | 51.27789 | 33835 ft | 454 kts | 270° |
| 2026-04-23 15:54 | 22.84148 | 51.21296 | 33843 ft | 454 kts | 270° |
| 2026-04-23 15:55 | 22.84099 | 51.14544 | 33830 ft | 454 kts | 270° |
| 2026-04-23 15:55 | 22.84047 | 51.07648 | 33839 ft | 455 kts | 270° |
| 2026-04-23 15:56 | 22.83997 | 51.01498 | 33840 ft | 455 kts | 270° |
| 2026-04-23 15:56 | 22.83939 | 50.94705 | 33839 ft | 455 kts | 270° |
| 2026-04-23 15:57 | 22.83884 | 50.88461 | 33843 ft | 455 kts | 270° |
| 2026-04-23 15:57 | 22.83844 | 50.84060 | 33841 ft | 455 kts | 270° |
| 2026-04-23 15:58 | 22.83790 | 50.78494 | 33839 ft | 456 kts | 270° |
| 2026-04-23 15:58 | 22.83740 | 50.73344 | 33840 ft | 456 kts | 270° |
| 2026-04-23 15:59 | 22.83669 | 50.66472 | 33843 ft | 456 kts | 270° |
| 2026-04-23 15:59 | 22.83595 | 50.59604 | 33848 ft | 455 kts | 270° |
| 2026-04-23 16:00 | 22.83519 | 50.52745 | 33848 ft | 455 kts | 270° |
| 2026-04-23 16:00 | 22.83440 | 50.45869 | 33844 ft | 455 kts | 270° |
| 2026-04-23 16:01 | 22.83358 | 50.39059 | 33843 ft | 455 kts | 270° |
| 2026-04-23 16:01 | 22.83274 | 50.32173 | 33845 ft | 456 kts | 270° |
| 2026-04-23 16:02 | 22.83185 | 50.25281 | 33834 ft | 456 kts | 270° |
| 2026-04-23 16:02 | 22.83094 | 50.18431 | 33836 ft | 456 kts | 270° |
| 2026-04-23 16:03 | 22.83000 | 50.11555 | 33844 ft | 456 kts | 270° |
| 2026-04-23 16:03 | 22.82903 | 50.04690 | 33842 ft | 455 kts | 270° |
| 2026-04-23 16:04 | 22.82820 | 49.98950 | 33847 ft | 455 kts | 270° |
| 2026-04-23 16:04 | 22.82718 | 49.92092 | 33857 ft | 455 kts | 270° |
| 2026-04-23 16:05 | 22.82631 | 49.86391 | 33851 ft | 454 kts | 270° |
| 2026-04-23 16:05 | 22.82509 | 49.78663 | 33845 ft | 454 kts | 270° |
| 2026-04-23 16:06 | 22.82400 | 49.71934 | 33849 ft | 453 kts | 270° |
| 2026-04-23 16:06 | 22.82287 | 49.65105 | 33848 ft | 453 kts | 270° |
| 2026-04-23 16:07 | 22.82172 | 49.58337 | 33844 ft | 453 kts | 270° |
| 2026-04-23 16:09 | 22.82072 | 49.52626 | 33840 ft | 453 kts | 270° |
| 2026-04-23 16:09 | 22.81950 | 49.45736 | 33858 ft | 452 kts | 269° |
| 2026-04-23 16:10 | 22.81825 | 49.38954 | 33851 ft | 451 kts | 269° |
| 2026-04-23 16:10 | 22.81697 | 49.32147 | 33849 ft | 451 kts | 269° |
| 2026-04-23 16:11 | 22.81614 | 49.27870 | 33857 ft | 450 kts | 269° |
| 2026-04-23 16:11 | 22.81530 | 49.23572 | 33855 ft | 449 kts | 269° |
| 2026-04-23 16:12 | 22.81385 | 49.16203 | 33845 ft | 449 kts | 269° |
| 2026-04-23 16:12 | 22.81342 | 49.14082 | 33844 ft | 448 kts | 269° |
| 2026-04-23 16:13 | 22.81203 | 49.07292 | 33831 ft | 448 kts | 269° |
| 2026-04-23 16:13 | 22.81170 | 49.05660 | 33831 ft | 448 kts | 269° |
| 2026-04-23 16:14 | 22.81130 | 49.03749 | 33829 ft | 448 kts | 269° |